createdAt,value
2023-05-05T00:01:34.886Z,7.80
2023-05-05T00:04:02.213Z,7.80
2023-05-05T00:06:29.478Z,7.80
2023-05-05T00:08:57.281Z,7.90
2023-05-05T00:11:25.898Z,7.90
2023-05-05T00:13:53.069Z,7.90
2023-05-05T00:16:20.400Z,7.90
2023-05-05T00:18:48.112Z,7.90
2023-05-05T00:21:15.643Z,7.90
2023-05-05T00:23:42.845Z,7.90
2023-05-05T00:26:10.030Z,7.90
2023-05-05T00:28:38.546Z,7.90
2023-05-05T00:31:05.969Z,7.80
2023-05-05T00:33:33.142Z,7.80
2023-05-05T00:36:00.475Z,7.80
2023-05-05T00:38:27.918Z,7.80
2023-05-05T00:40:55.158Z,7.70
2023-05-05T00:43:22.329Z,7.70
2023-05-05T00:45:59.977Z,7.60
2023-05-05T00:48:29.528Z,7.60
2023-05-05T00:50:57.310Z,7.40
2023-05-05T00:53:26.625Z,7.50
2023-05-05T00:55:53.874Z,7.50
2023-05-05T00:58:21.055Z,7.50
2023-05-05T01:00:48.524Z,7.40
2023-05-05T01:03:15.817Z,7.40
2023-05-05T01:05:58.546Z,7.30
2023-05-05T01:09:01.960Z,7.40
2023-05-05T01:11:36.007Z,7.40
2023-05-05T01:14:16.089Z,7.40
2023-05-05T01:17:24.491Z,7.30
2023-05-05T01:20:21.447Z,7.40
2023-05-05T01:22:59.513Z,7.40
2023-05-05T01:25:47.667Z,7.30
2023-05-05T01:28:53.696Z,7.30
2023-05-05T01:31:33.281Z,7.20
2023-05-05T01:34:05.475Z,7.10
2023-05-05T01:36:44.277Z,7.10
2023-05-05T01:39:16.358Z,7.10
2023-05-05T01:41:48.826Z,7.00
2023-05-05T01:44:18.621Z,7.00
2023-05-05T01:46:48.915Z,7.00
2023-05-05T01:49:16.545Z,6.90
2023-05-05T01:51:47.794Z,6.90
2023-05-05T01:54:16.442Z,6.90
2023-05-05T01:56:44.304Z,6.80
2023-05-05T01:59:13.461Z,6.80
2023-05-05T02:01:41.708Z,6.80
2023-05-05T02:04:10.789Z,6.80
2023-05-05T02:06:39.893Z,6.80
2023-05-05T02:09:11.567Z,6.70
2023-05-05T02:11:39.335Z,6.70
2023-05-05T02:14:08.965Z,6.70
2023-05-05T02:16:37.884Z,6.60
2023-05-05T02:19:05.661Z,6.50
2023-05-05T02:21:33.969Z,6.50
2023-05-05T02:24:01.452Z,6.50
2023-05-05T02:26:34.067Z,6.50
2023-05-05T02:29:03.443Z,6.50
2023-05-05T02:31:34.340Z,6.40
2023-05-05T02:34:04.130Z,6.40
2023-05-05T02:36:39.190Z,6.30
2023-05-05T02:39:14.243Z,6.30
2023-05-05T02:41:44.948Z,6.30
2023-05-05T02:44:24.441Z,6.30
2023-05-05T02:46:51.967Z,6.20
2023-05-05T02:49:19.982Z,6.30
2023-05-05T02:51:47.934Z,6.20
2023-05-05T02:54:22.616Z,6.10
2023-05-05T02:56:51.157Z,6.10
2023-05-05T02:59:47.230Z,6.10
2023-05-05T03:02:21.424Z,6.20
2023-05-05T03:05:10.966Z,6.10
2023-05-05T03:07:51.544Z,6.10
2023-05-05T03:10:21.848Z,6.00
2023-05-05T03:12:56.404Z,6.10
2023-05-05T03:15:37.464Z,6.20
2023-05-05T03:18:08.334Z,6.10
2023-05-05T03:20:41.929Z,6.10
2023-05-05T03:23:15.463Z,6.20
2023-05-05T03:25:47.187Z,6.20
2023-05-05T03:28:23.442Z,6.40
2023-05-05T03:30:50.881Z,6.50
2023-05-05T03:33:19.679Z,6.50
2023-05-05T03:35:47.115Z,6.50
2023-05-05T03:38:15.044Z,6.50
2023-05-05T03:40:44.962Z,6.60
2023-05-05T03:43:16.070Z,6.50
2023-05-05T03:45:43.990Z,6.50
2023-05-05T03:48:11.571Z,6.40
2023-05-05T03:50:40.575Z,6.30
2023-05-05T03:53:08.377Z,6.30
2023-05-05T03:55:35.545Z,6.30
2023-05-05T03:58:02.753Z,6.20
2023-05-05T04:00:30.476Z,6.10
2023-05-05T04:02:57.778Z,6.10
2023-05-05T04:05:26.185Z,6.10
2023-05-05T04:07:54.368Z,6.10
2023-05-05T04:10:21.510Z,6.10
2023-05-05T04:12:48.994Z,6.10
2023-05-05T04:15:16.368Z,6.10
2023-05-05T04:17:44.214Z,6.20
2023-05-05T04:20:11.650Z,6.20
2023-05-05T04:22:40.358Z,6.20
2023-05-05T04:25:07.886Z,6.30
2023-05-05T04:27:35.260Z,6.30
2023-05-05T04:30:02.497Z,6.40
2023-05-05T04:32:32.459Z,6.50
2023-05-05T04:34:59.850Z,6.50
2023-05-05T04:37:27.595Z,6.50
2023-05-05T04:39:54.798Z,6.70
2023-05-05T04:42:21.959Z,6.80
2023-05-05T04:44:49.787Z,6.80
2023-05-05T04:47:17.588Z,6.80
2023-05-05T04:49:45.772Z,7.00
2023-05-05T04:52:14.014Z,7.20
2023-05-05T04:54:41.245Z,7.50
2023-05-05T04:57:08.401Z,7.70
2023-05-05T04:59:36.736Z,8.00
2023-05-05T05:02:04.230Z,8.20
2023-05-05T05:04:31.744Z,8.30
2023-05-05T05:06:59.715Z,8.50
2023-05-05T05:09:28.017Z,8.60
2023-05-05T05:12:00.398Z,8.70
2023-05-05T05:14:28.178Z,8.80
2023-05-05T05:16:55.787Z,8.80
2023-05-05T05:19:24.665Z,8.90
2023-05-05T05:21:51.942Z,8.90
2023-05-05T05:24:19.105Z,8.90
2023-05-05T05:26:46.988Z,8.90
2023-05-05T05:29:14.570Z,8.80
2023-05-05T05:31:41.929Z,8.90
2023-05-05T05:34:10.760Z,8.90
2023-05-05T05:36:40.553Z,9.00
2023-05-05T05:39:08.064Z,9.10
2023-05-05T05:41:35.425Z,9.40
2023-05-05T05:44:02.640Z,9.70
2023-05-05T05:46:30.629Z,10.10
2023-05-05T05:48:58.438Z,10.70
2023-05-05T05:51:26.257Z,11.30
2023-05-05T05:53:57.449Z,11.80
2023-05-05T05:56:25.931Z,12.10
2023-05-05T05:58:53.304Z,12.20
2023-05-05T06:01:20.900Z,12.10
2023-05-05T06:03:48.705Z,12.10
2023-05-05T06:06:17.209Z,12.10
2023-05-05T06:08:44.800Z,12.10
2023-05-05T06:11:12.573Z,12.10
2023-05-05T06:13:40.068Z,12.20
2023-05-05T06:16:07.682Z,12.20
2023-05-05T06:18:34.989Z,12.30
2023-05-05T06:21:02.518Z,12.30
2023-05-05T06:23:31.548Z,12.40
2023-05-05T06:26:04.778Z,12.60
2023-05-05T06:29:23.326Z,13.00
2023-05-05T06:31:51.423Z,13.60
2023-05-05T06:34:18.693Z,14.50
2023-05-05T06:36:46.543Z,15.50
2023-05-05T06:39:15.922Z,16.80
2023-05-05T06:41:43.346Z,17.70
2023-05-05T06:44:11.263Z,17.90
2023-05-05T06:46:38.480Z,17.70
2023-05-05T06:49:05.683Z,16.20
2023-05-05T06:51:32.826Z,15.30
2023-05-05T06:54:00.233Z,15.00
2023-05-05T06:56:27.998Z,15.00
2023-05-05T06:58:55.158Z,14.80
2023-05-05T07:01:22.408Z,14.70
2023-05-05T07:03:49.790Z,14.70
2023-05-05T07:06:17.485Z,14.60
2023-05-05T07:08:44.608Z,14.50
2023-05-05T07:11:11.742Z,14.60
2023-05-05T07:13:39.083Z,14.50
2023-05-05T07:16:06.485Z,14.50
2023-05-05T07:18:33.734Z,14.60
2023-05-05T07:21:01.994Z,14.40
2023-05-05T07:23:29.756Z,14.30
2023-05-05T07:25:56.914Z,14.30
2023-05-05T07:28:24.386Z,14.20
2023-05-05T07:30:51.992Z,14.40
2023-05-05T07:33:19.896Z,14.40
2023-05-05T07:35:47.134Z,14.60
2023-05-05T07:38:14.313Z,14.90
2023-05-05T07:40:41.460Z,15.00
2023-05-05T07:43:08.699Z,15.50
2023-05-05T07:45:36.002Z,15.80
2023-05-05T07:48:03.318Z,16.20
2023-05-05T07:50:30.643Z,16.80
2023-05-05T07:53:10.902Z,17.20
2023-05-05T07:55:42.212Z,17.30
2023-05-05T07:58:11.515Z,17.50
2023-05-05T08:00:39.209Z,18.20
2023-05-05T08:03:08.983Z,19.80
2023-05-05T08:05:38.523Z,20.00
2023-05-05T08:08:06.905Z,20.10
2023-05-05T08:10:34.231Z,20.10
2023-05-05T08:13:02.031Z,20.20
2023-05-05T08:15:30.024Z,21.50
2023-05-05T08:17:57.273Z,22.60
2023-05-05T08:22:55.941Z,23.40
2023-05-05T08:25:23.286Z,25.30
2023-05-05T08:27:50.520Z,24.20
2023-05-05T08:30:22.153Z,23.00
2023-05-05T08:32:49.984Z,22.40
2023-05-05T08:35:17.552Z,23.00
2023-05-05T08:37:44.795Z,23.60
2023-05-05T08:40:16.563Z,24.10
2023-05-05T08:42:45.656Z,24.90
2023-05-05T08:45:13.559Z,26.10
2023-05-05T08:47:42.984Z,24.90
2023-05-05T08:50:10.927Z,24.40
2023-05-05T08:52:40.747Z,23.80
2023-05-05T08:55:15.444Z,22.80
2023-05-05T08:57:52.836Z,22.30
2023-05-05T09:00:21.099Z,22.30
2023-05-05T09:02:49.229Z,22.20
2023-05-05T09:05:16.979Z,21.90
2023-05-05T09:07:44.453Z,21.50
2023-05-05T09:10:12.387Z,21.40
2023-05-05T09:12:40.904Z,21.50
2023-05-05T09:15:13.383Z,21.00
2023-05-05T09:17:41.332Z,20.20
2023-05-05T09:20:10.694Z,19.30
2023-05-05T09:22:40.038Z,18.70
2023-05-05T09:25:09.741Z,18.20
2023-05-05T09:27:39.076Z,17.70
2023-05-05T09:30:08.099Z,17.40
2023-05-05T09:32:45.863Z,17.00
2023-05-05T09:35:13.715Z,16.80
2023-05-05T09:38:12.229Z,16.90
2023-05-05T09:40:50.458Z,16.90
2023-05-05T09:43:19.523Z,17.00
2023-05-05T09:45:48.712Z,17.20
2023-05-05T09:48:27.471Z,18.00
2023-05-05T09:50:56.068Z,19.20
2023-05-05T09:53:24.159Z,21.80
2023-05-05T09:55:59.648Z,22.80
2023-05-05T09:58:29.159Z,22.60
2023-05-05T10:00:58.527Z,22.00
2023-05-05T10:03:26.041Z,21.80
2023-05-05T10:05:55.530Z,22.00
2023-05-05T10:08:31.398Z,22.60
2023-05-05T10:11:01.772Z,23.80
2023-05-05T10:13:30.232Z,24.20
2023-05-05T10:15:58.512Z,24.60
2023-05-05T10:18:27.572Z,24.40
2023-05-05T10:21:04.615Z,23.60
2023-05-05T10:23:39.098Z,23.10
2023-05-05T10:26:07.785Z,23.00
2023-05-05T10:28:43.800Z,22.90
2023-05-05T10:31:25.709Z,23.00
2023-05-05T10:34:03.547Z,22.70
2023-05-05T10:36:31.809Z,22.20
2023-05-05T10:39:00.504Z,21.70
2023-05-05T10:41:30.699Z,21.10
2023-05-05T10:43:58.988Z,20.80
2023-05-05T10:46:28.625Z,20.30
2023-05-05T10:49:01.886Z,19.70
2023-05-05T10:51:55.413Z,19.30
2023-05-05T10:54:39.306Z,18.70
2023-05-05T10:57:10.278Z,18.30
2023-05-05T10:59:37.540Z,18.00
2023-05-05T11:02:43.853Z,18.00
2023-05-05T11:05:21.115Z,18.20
2023-05-05T11:07:50.082Z,18.20
2023-05-05T11:10:23.194Z,18.30
2023-05-05T11:13:00.023Z,18.10
2023-05-05T11:15:27.276Z,18.20
2023-05-05T11:17:58.648Z,17.80
2023-05-05T11:20:40.745Z,17.00
2023-05-05T11:23:08.073Z,16.40
2023-05-05T11:25:36.020Z,15.70
2023-05-05T11:28:11.358Z,15.30
2023-05-05T11:30:58.501Z,14.80
2023-05-05T11:33:37.704Z,14.60
2023-05-05T11:36:07.489Z,14.40
2023-05-05T11:39:02.683Z,14.10
2023-05-05T11:41:33.080Z,14.10
2023-05-05T11:44:14.326Z,14.10
2023-05-05T11:47:04.903Z,14.50
2023-05-05T11:49:34.508Z,15.00
2023-05-05T11:52:07.248Z,15.50
2023-05-05T11:54:37.468Z,16.00
2023-05-05T11:57:08.454Z,16.50
2023-05-05T11:59:49.668Z,17.00
2023-05-05T12:02:21.137Z,17.40
2023-05-05T12:04:49.126Z,17.60
2023-05-05T12:07:21.165Z,18.00
2023-05-05T12:09:49.343Z,18.40
2023-05-05T12:12:17.815Z,18.70
2023-05-05T12:14:54.135Z,19.30
2023-05-05T12:17:22.568Z,20.00
2023-05-05T12:19:52.564Z,20.30
2023-05-05T12:22:24.357Z,20.30
2023-05-05T12:24:59.497Z,20.10
2023-05-05T12:27:28.729Z,19.60
2023-05-05T12:29:57.721Z,18.90
2023-05-05T12:32:27.643Z,18.50
2023-05-05T12:34:57.348Z,18.30
2023-05-05T12:37:26.677Z,18.30
2023-05-05T12:39:54.938Z,18.50
2023-05-05T12:42:22.972Z,18.80
2023-05-05T12:44:50.972Z,18.50
2023-05-05T12:47:32.753Z,18.20
2023-05-05T12:50:02.856Z,18.40
2023-05-05T12:52:50.428Z,18.70
2023-05-05T12:55:19.642Z,19.30
2023-05-05T12:58:01.262Z,19.70
2023-05-05T13:00:29.121Z,20.10
2023-05-05T13:02:56.780Z,20.70
2023-05-05T13:05:39.601Z,21.50
2023-05-05T13:08:07.302Z,22.00
2023-05-05T13:10:34.499Z,22.20
2023-05-05T13:13:02.344Z,22.30
2023-05-05T13:15:29.622Z,21.90
2023-05-05T13:18:00.777Z,21.70
2023-05-05T13:20:28.674Z,21.20
2023-05-05T13:22:57.139Z,20.80
2023-05-05T13:25:24.679Z,21.10
2023-05-05T13:27:51.881Z,21.40
2023-05-05T13:30:20.566Z,22.10
2023-05-05T13:32:47.828Z,22.40
2023-05-05T13:35:16.594Z,22.50
2023-05-05T13:37:45.862Z,22.50
2023-05-05T13:40:13.872Z,22.80
2023-05-05T13:42:41.148Z,22.70
2023-05-05T13:45:09.291Z,22.50
2023-05-05T13:47:37.239Z,22.30
2023-05-05T13:50:04.773Z,22.20
2023-05-05T13:52:33.157Z,21.90
2023-05-05T13:55:01.286Z,21.70
2023-05-05T13:57:28.847Z,21.30
2023-05-05T13:59:56.360Z,21.00
2023-05-05T14:02:23.641Z,20.70
2023-05-05T14:04:51.446Z,20.50
2023-05-05T14:07:18.720Z,20.40
2023-05-05T14:09:45.856Z,20.30
2023-05-05T14:12:13.355Z,20.10
2023-05-05T14:14:40.624Z,20.00
2023-05-05T14:17:07.780Z,20.00
2023-05-05T14:19:35.392Z,19.90
2023-05-05T14:22:02.552Z,19.60
2023-05-05T14:24:29.721Z,19.10
2023-05-05T14:26:57.339Z,18.90
2023-05-05T14:29:25.110Z,19.00
2023-05-05T14:31:52.361Z,18.50
2023-05-05T14:34:20.108Z,18.20
2023-05-05T14:36:47.799Z,18.00
2023-05-05T14:39:15.055Z,18.00
2023-05-05T14:41:42.314Z,17.90
2023-05-05T14:44:09.491Z,17.70
2023-05-05T14:46:36.715Z,17.40
2023-05-05T14:49:03.913Z,17.40
2023-05-05T14:51:31.949Z,17.50
2023-05-05T14:53:59.832Z,17.60
2023-05-05T14:56:28.048Z,17.70
2023-05-05T14:58:55.214Z,17.90
2023-05-05T15:01:22.576Z,18.50
2023-05-05T15:03:50.293Z,18.90
2023-05-05T15:06:17.492Z,19.10
2023-05-05T15:08:44.684Z,19.50
2023-05-05T15:11:11.916Z,19.60
2023-05-05T15:13:40.198Z,20.00
2023-05-05T15:16:08.184Z,20.40
2023-05-05T15:18:35.566Z,20.80
2023-05-05T15:21:04.036Z,20.90
2023-05-05T15:23:31.315Z,20.70
2023-05-05T15:25:59.167Z,20.30
2023-05-05T15:28:26.359Z,20.10
2023-05-05T15:31:19.183Z,19.80
2023-05-05T15:33:48.983Z,19.60
2023-05-05T15:36:17.423Z,19.40
2023-05-05T15:38:45.127Z,19.40
2023-05-05T15:41:12.848Z,19.00
2023-05-05T15:43:40.053Z,18.80
2023-05-05T15:46:07.244Z,18.40
2023-05-05T15:48:35.587Z,18.00
2023-05-05T15:51:02.924Z,17.80
2023-05-05T15:53:30.318Z,17.70
2023-05-05T15:55:57.562Z,17.60
2023-05-05T15:58:24.767Z,17.50
2023-05-05T16:00:51.964Z,17.30
2023-05-05T16:03:19.823Z,17.20
2023-05-05T16:05:47.326Z,17.00
2023-05-05T16:08:14.457Z,16.80
2023-05-05T16:10:41.678Z,16.80
2023-05-05T16:13:09.077Z,16.80
2023-05-05T16:15:36.464Z,16.80
2023-05-05T16:18:03.904Z,16.70
2023-05-05T16:20:31.206Z,16.70
2023-05-05T16:22:58.454Z,16.60
2023-05-05T16:25:26.637Z,16.50
2023-05-05T16:27:56.542Z,16.40
2023-05-05T16:30:24.402Z,16.30
2023-05-05T16:32:52.201Z,16.10
2023-05-05T16:35:19.835Z,16.00
2023-05-05T16:37:47.392Z,15.90
2023-05-05T16:40:14.665Z,15.80
2023-05-05T16:42:44.242Z,15.80
2023-05-05T16:45:11.898Z,15.60
2023-05-05T16:47:39.268Z,15.60
2023-05-05T16:50:07.054Z,15.50
2023-05-05T16:52:34.373Z,15.40
2023-05-05T16:55:05.002Z,15.30
2023-05-05T16:57:32.194Z,15.30
2023-05-05T16:59:59.452Z,15.30
2023-05-05T17:02:26.924Z,15.20
2023-05-05T17:04:54.824Z,15.10
2023-05-05T17:07:22.327Z,15.10
2023-05-05T17:09:50.964Z,15.00
2023-05-05T17:12:18.413Z,15.00
2023-05-05T17:14:45.918Z,15.00
2023-05-05T17:17:13.900Z,15.00
2023-05-05T17:19:42.604Z,14.90
2023-05-05T17:22:10.131Z,14.90
2023-05-05T17:24:37.358Z,14.80
2023-05-05T17:27:04.729Z,14.70
2023-05-05T17:29:35.504Z,14.40
2023-05-05T17:32:02.992Z,14.00
2023-05-05T17:34:30.400Z,13.60
2023-05-05T17:36:57.902Z,13.30
2023-05-05T17:39:25.289Z,13.00
2023-05-05T17:41:52.586Z,12.80
2023-05-05T17:44:20.480Z,12.70
2023-05-05T17:46:47.781Z,12.50
2023-05-05T17:49:15.251Z,12.40
2023-05-05T17:51:42.990Z,12.30
2023-05-05T17:54:10.924Z,12.10
2023-05-05T17:56:38.409Z,12.00
2023-05-05T17:59:05.769Z,11.90
2023-05-05T18:01:33.247Z,11.80
2023-05-05T18:04:00.689Z,11.80
2023-05-05T18:06:29.319Z,11.60
2023-05-05T18:08:57.742Z,11.50
2023-05-05T18:11:27.725Z,11.40
2023-05-05T18:13:56.134Z,11.40
2023-05-05T18:16:23.877Z,11.30
2023-05-05T18:18:51.365Z,11.20
2023-05-05T18:21:18.839Z,11.20
2023-05-05T18:23:46.269Z,11.20
2023-05-05T18:26:15.423Z,11.20
2023-05-05T18:28:42.747Z,11.20
2023-05-05T18:31:10.845Z,11.20
2023-05-05T18:33:38.311Z,11.20
2023-05-05T18:36:05.925Z,11.20
2023-05-05T18:38:33.235Z,11.20
2023-05-05T18:41:00.572Z,11.20
2023-05-05T18:43:28.006Z,11.20
2023-05-05T18:45:55.441Z,11.20
2023-05-05T18:48:22.914Z,11.30
2023-05-05T18:50:51.354Z,11.20
2023-05-05T18:53:19.343Z,11.20
2023-05-05T18:55:47.102Z,11.20
2023-05-05T18:58:14.855Z,11.10
2023-05-05T19:00:42.555Z,11.10
2023-05-05T19:03:09.869Z,11.00
2023-05-05T19:05:39.805Z,10.90
2023-05-05T19:08:07.939Z,10.90
2023-05-05T19:10:35.321Z,10.80
2023-05-05T19:13:02.876Z,10.70
2023-05-05T19:15:30.477Z,10.60
2023-05-05T19:17:59.229Z,10.50
2023-05-05T19:20:26.852Z,10.40
2023-05-05T19:22:55.058Z,10.40
2023-05-05T19:25:22.971Z,10.30
2023-05-05T19:27:50.269Z,10.30
2023-05-05T19:30:18.835Z,10.20
2023-05-05T19:32:46.640Z,10.10
2023-05-05T19:35:14.656Z,10.10
2023-05-05T19:37:42.143Z,10.00
2023-05-05T19:40:10.352Z,10.00
2023-05-05T19:42:38.064Z,9.90
2023-05-05T19:45:06.159Z,9.90
2023-05-05T19:47:33.571Z,9.80
2023-05-05T19:50:00.917Z,9.80
2023-05-05T19:52:28.261Z,9.70
2023-05-05T19:54:55.553Z,9.70
2023-05-05T19:57:22.996Z,9.60
2023-05-05T19:59:50.454Z,9.60
2023-05-05T20:02:17.856Z,9.60
2023-05-05T20:04:45.228Z,9.50
2023-05-05T20:07:12.963Z,9.40
2023-05-05T20:09:40.939Z,9.40
2023-05-05T20:12:08.287Z,9.30
2023-05-05T20:14:35.691Z,9.30
2023-05-05T20:17:03.751Z,9.30
2023-05-05T20:19:31.161Z,9.20
2023-05-05T20:21:58.454Z,9.10
2023-05-05T20:24:26.101Z,9.10
2023-05-05T20:26:53.398Z,9.10
2023-05-05T20:29:21.863Z,9.00
2023-05-05T20:31:49.396Z,9.00
2023-05-05T20:34:16.810Z,8.90
2023-05-05T20:36:44.655Z,8.90
2023-05-05T20:39:16.102Z,8.80
2023-05-05T20:41:43.402Z,8.80
2023-05-05T20:44:10.821Z,8.70
2023-05-05T20:46:38.176Z,8.60
2023-05-05T20:49:06.401Z,8.60
2023-05-05T20:51:34.934Z,8.60
2023-05-05T20:54:02.750Z,8.50
2023-05-05T20:56:30.374Z,8.60
2023-05-05T20:58:57.606Z,8.60
2023-05-05T21:01:25.689Z,8.60
2023-05-05T21:03:52.979Z,8.60
2023-05-05T21:06:20.161Z,8.60
2023-05-05T21:08:47.711Z,8.60
2023-05-05T21:11:14.850Z,8.60
2023-05-05T21:13:42.099Z,8.60
2023-05-05T21:16:09.785Z,8.50
2023-05-05T21:18:37.068Z,8.50
2023-05-05T21:21:04.675Z,8.50
2023-05-05T21:23:32.336Z,8.50
2023-05-05T21:25:59.509Z,8.50
2023-05-05T21:28:26.705Z,8.50
2023-05-05T21:33:24.022Z,8.50
2023-05-05T21:35:51.310Z,8.50
2023-05-05T21:38:18.447Z,8.50
2023-05-05T21:40:45.731Z,8.50
2023-05-05T21:43:13.133Z,8.40
2023-05-05T21:45:40.388Z,8.50
2023-05-05T21:48:07.725Z,8.40
2023-05-05T21:50:37.025Z,8.40
2023-05-05T21:53:04.166Z,8.40
2023-05-05T21:55:31.317Z,8.40
2023-05-05T21:57:58.487Z,8.40
2023-05-05T22:00:25.756Z,8.40
2023-05-05T22:02:53.127Z,8.40
2023-05-05T22:05:21.598Z,8.40
2023-05-05T22:08:07.506Z,8.40
2023-05-05T22:10:34.680Z,8.40
2023-05-05T22:13:01.882Z,8.40
2023-05-05T22:15:32.984Z,8.40
2023-05-05T22:18:07.052Z,8.40
2023-05-05T22:20:35.238Z,8.40
2023-05-05T22:23:02.494Z,8.40
2023-05-05T22:25:29.652Z,8.40
2023-05-05T22:27:56.868Z,8.40
2023-05-05T22:30:24.023Z,8.30
2023-05-05T22:32:51.799Z,8.30
2023-05-05T22:35:19.347Z,8.20
2023-05-05T22:37:46.858Z,8.20
2023-05-05T22:40:14.102Z,8.20
2023-05-05T22:42:41.319Z,8.20
2023-05-05T22:45:09.602Z,8.10
2023-05-05T22:47:37.145Z,8.10
2023-05-05T22:50:05.113Z,8.10
2023-05-05T22:52:32.343Z,8.10
2023-05-05T22:54:59.629Z,8.10
2023-05-05T22:57:26.868Z,8.10
2023-05-05T22:59:54.046Z,8.00
2023-05-05T23:02:21.662Z,8.00
2023-05-05T23:04:48.891Z,8.00
2023-05-05T23:07:16.076Z,8.00
2023-05-05T23:09:43.258Z,8.00
2023-05-05T23:12:10.485Z,7.90
2023-05-05T23:14:38.066Z,7.90
2023-05-05T23:17:05.686Z,7.80
2023-05-05T23:19:32.963Z,7.80
2023-05-05T23:22:00.807Z,7.80
2023-05-05T23:24:28.961Z,7.80
2023-05-05T23:26:59.089Z,7.80
2023-05-05T23:29:26.912Z,7.80
2023-05-05T23:31:54.076Z,7.80
2023-05-05T23:34:21.732Z,7.80
2023-05-05T23:36:50.420Z,7.80
2023-05-05T23:39:17.651Z,7.80
2023-05-05T23:41:44.831Z,7.80
2023-05-05T23:44:11.981Z,7.80
2023-05-05T23:46:39.274Z,7.80
2023-05-05T23:49:07.140Z,7.80
2023-05-05T23:51:34.633Z,7.80
2023-05-05T23:54:01.896Z,7.80
2023-05-05T23:56:29.402Z,7.80
2023-05-05T23:58:56.577Z,7.80
